Amorgos, Greece
Current Conditions -  °F | °C
As of 10:50 AM on Friday 19 Dec 2014 (Local Time) from LGHI Reporting Station
Few Clouds Few Clouds  
Wind Chill: 59°   Ceiling: Unl
Heat Index: 59°   Visibility: 6mi
Dew Point: 50°   Wind: 6mph
Humidity: 72%   Direction: 350°N
Pressure: 30.15"   Gusts: NA
Location:  38.83°N, 25.9°E
Report Text: LGHI 190750Z 35005KT 280V070 9999 FEW020 15/10 Q1021
Loading
Personal Weather Stations






























Interactive Weather Map New forecast layout! Learn more

10-Day Weather Forecast

Advertisements
Track Severe Weather on mobile